Time;durP1;ratioP1;P1;durP2;ratioP2;P2;SDS_P1;SDS_P2;PMS_P1;PMS_P2;Temp;Humidity;BMP_temperature;BMP_pressure;BME280_temperature;BME280_humidity;BME280_pressure;Samples;Min_cycle;Max_cycle;Signal;HPM_P1;HPM_P2
2022/05/28 00:00:40;;;;;;;;;;;;;;;;;;336481;157;856565;-57
2022/05/28 00:01:42;;;;;;;;;;;;;;;;;;335219;157;855811;-58
2022/05/28 00:02:43;;;;;;;;;;;;;;;;;;338056;156;856758;-59
2022/05/28 00:03:46;;;;;;;;;;;;;;;;;;337371;157;856313;-58
2022/05/28 00:04:47;;;;;;;;;;;;;;;;;;338087;157;856670;-59
2022/05/28 00:05:49;;;;;;;;;;;;;;;;;;336920;157;856299;-60
2022/05/28 00:06:50;;;;;;;;;;;;;;;;;;337338;157;855859;-59
2022/05/28 00:07:52;;;;;;;;;;;;;;;;;;337832;158;855955;-59
2022/05/28 00:08:56;;;;;;;;;;;;;;;;;;336654;157;855939;-59
2022/05/28 00:09:57;;;;;;;;;;;;;;;;;;336578;157;856597;-58
2022/05/28 00:10:59;;;;;;;;;;;;;;;;;;336053;160;857580;-58
2022/05/28 00:12:00;;;;;;;;;;;;;;;;;;335536;160;855932;-58
2022/05/28 00:13:02;;;;;;;;;;;;;;;;;;344146;154;855758;-60
2022/05/28 00:14:04;;;;;;;;;;;;;;;;;;344614;154;856739;-62
2022/05/28 00:15:06;;;;;;;;;;;;;;;;;;344588;154;854999;-59
2022/05/28 00:16:08;;;;;;;;;;;;;;;;;;343550;154;857630;-59
2022/05/28 00:17:10;;;;;;;;;;;;;;;;;;337618;157;856013;-59
2022/05/28 00:18:11;;;;;;;;;;;;;;;;;;336720;160;856033;-58
2022/05/28 00:19:12;;;;;;;;;;;;;;;;;;335222;157;856424;-59
2022/05/28 00:20:14;;;;;;;;;;;;;;;;;;342676;154;855936;-59
2022/05/28 00:21:15;;;;;;;;;;;;;;;;;;337087;159;857687;-57
2022/05/28 00:22:17;;;;;;;;;;;;;;;;;;337226;157;855831;-58
2022/05/28 00:23:18;;;;;;;;;;;;;;;;;;343064;154;855969;-59
2022/05/28 00:24:20;;;;;;;;;;;;;;;;;;346288;154;856460;-58
2022/05/28 00:25:21;;;;;;;;;;;;;;;;;;340139;156;856247;-58
2022/05/28 00:26:23;;;;;;;;;;;;;;;;;;346911;153;857487;-58
2022/05/28 00:27:24;;;;;;;;;;;;;;;;;;341526;154;855737;-58
2022/05/28 00:28:26;;;;;;;;;;;;;;;;;;349612;152;856126;-58
2022/05/28 00:29:27;;;;;;;;;;;;;;;;;;349272;152;855757;-58
2022/05/28 00:30:29;;;;;;;;;;;;;;;;;;351622;152;855829;-58
2022/05/28 00:31:30;;;;;;;;;;;;;;;;;;349749;152;855828;-59
2022/05/28 00:32:32;;;;;;;;;;;;;;;;;;348848;152;857543;-58
2022/05/28 00:33:33;;;;;;;;;;;;;;;;;;349351;152;856219;-58
2022/05/28 00:34:36;;;;;;;;;;;;;;;;;;349026;152;858089;-59
2022/05/28 00:35:38;;;;;;;;;;;;;;;;;;349083;154;857213;-58
2022/05/28 00:36:40;;;;;;;;;;;;;;;;;;348007;152;856337;-58
2022/05/28 00:37:42;;;;;;;;;;;;;;;;;;349672;152;855837;-58
2022/05/28 00:38:43;;;;;;;;;;;;;;;;;;343110;154;855990;-58
2022/05/28 00:39:45;;;;;;;;;;;;;;;;;;349473;152;856237;-61
2022/05/28 00:40:46;;;;;;;;;;;;;;;;;;350403;152;855796;-58
2022/05/28 00:41:48;;;;;;;;;;;;;;;;;;348157;152;857512;-58
2022/05/28 00:42:50;;;;;;;;;;;;;;;;;;349123;152;855823;-59
2022/05/28 00:43:51;;;;;;;;;;;;;;;;;;349953;152;855959;-59
2022/05/28 00:44:53;;;;;;;;;;;;;;;;;;348962;152;855874;-59
2022/05/28 00:45:55;;;;;;;;;;;;;;;;;;349218;153;857494;-60
2022/05/28 00:46:56;;;;;;;;;;;;;;;;;;349251;152;855957;-60
2022/05/28 00:47:58;;;;;;;;;;;;;;;;;;349576;152;855984;-60
2022/05/28 00:49:00;;;;;;;;;;;;;;;;;;350043;154;857594;-59
2022/05/28 00:50:02;;;;;;;;;;;;;;;;;;349215;152;856201;-58
2022/05/28 00:51:03;;;;;;;;;;;;;;;;;;349782;152;855813;-58
2022/05/28 00:52:07;;;;;;;;;;;;;;;;;;349426;152;855857;-61
2022/05/28 00:53:08;;;;;;;;;;;;;;;;;;349718;152;855817;-61
2022/05/28 00:54:09;;;;;;;;;;;;;;;;;;349658;152;856870;-59
2022/05/28 00:55:11;;;;;;;;;;;;;;;;;;349526;152;855951;-60
2022/05/28 00:56:13;;;;;;;;;;;;;;;;;;349573;152;855909;-60
2022/05/28 00:57:14;;;;;;;;;;;;;;;;;;348426;152;856095;-59
2022/05/28 00:58:16;;;;;;;;;;;;;;;;;;348976;152;855921;-59
2022/05/28 00:59:18;;;;;;;;;;;;;;;;;;349293;152;855932;-59
2022/05/28 01:00:20;;;;;;;;;;;;;;;;;;349160;152;856805;-58
2022/05/28 01:01:21;;;;;;;;;;;;;;;;;;349647;152;856568;-59
2022/05/28 01:02:24;;;;;;;;;;;;;;;;;;348658;152;855853;-59
2022/05/28 01:03:25;;;;;;;;;;;;;;;;;;343264;154;856679;-59
2022/05/28 01:04:28;;;;;;;;;;;;;;;;;;343898;154;855825;-58
2022/05/28 01:05:30;;;;;;;;;;;;;;;;;;342979;154;855864;-58
2022/05/28 01:06:33;;;;;;;;;;;;;;;;;;342998;154;855888;-58
2022/05/28 01:07:34;;;;;;;;;;;;;;;;;;343072;154;856762;-59
2022/05/28 01:08:39;;;;;;;;;;;;;;;;;;341204;154;856064;-58
2022/05/28 01:09:40;;;;;;;;;;;;;;;;;;343209;154;855881;-59
2022/05/28 01:10:42;;;;;;;;;;;;;;;;;;343066;154;856043;-59
2022/05/28 01:11:44;;;;;;;;;;;;;;;;;;347897;152;856575;-58
2022/05/28 01:12:45;;;;;;;;;;;;;;;;;;348985;152;857652;-61
2022/05/28 01:13:46;;;;;;;;;;;;;;;;;;349432;152;855955;-59
2022/05/28 01:14:48;;;;;;;;;;;;;;;;;;349534;152;855862;-58
2022/05/28 01:15:49;;;;;;;;;;;;;;;;;;349288;152;856033;-58
2022/05/28 01:16:51;;;;;;;;;;;;;;;;;;347737;152;855757;-59
2022/05/28 01:17:55;;;;;;;;;;;;;;;;;;348077;152;856438;-59
2022/05/28 01:18:57;;;;;;;;;;;;;;;;;;349817;152;856956;-59
2022/05/28 01:19:58;;;;;;;;;;;;;;;;;;348554;154;856860;-59
2022/05/28 01:20:59;;;;;;;;;;;;;;;;;;350292;152;855868;-59
2022/05/28 01:22:01;;;;;;;;;;;;;;;;;;349226;152;856392;-59
2022/05/28 01:23:02;;;;;;;;;;;;;;;;;;350792;153;856255;-58
2022/05/28 01:24:04;;;;;;;;;;;;;;;;;;349879;152;857650;-59
2022/05/28 01:25:06;;;;;;;;;;;;;;;;;;350042;154;855890;-59
2022/05/28 01:26:08;;;;;;;;;;;;;;;;;;350364;151;855854;-59
2022/05/28 01:27:09;;;;;;;;;;;;;;;;;;349747;154;857017;-59
2022/05/28 01:28:10;;;;;;;;;;;;;;;;;;350270;154;855953;-59
2022/05/28 01:29:12;;;;;;;;;;;;;;;;;;351419;152;855969;-59
2022/05/28 01:30:14;;;;;;;;;;;;;;;;;;350084;153;855240;-58
2022/05/28 01:31:15;;;;;;;;;;;;;;;;;;350144;151;856006;-59
2022/05/28 01:32:16;;;;;;;;;;;;;;;;;;349680;153;856540;-58
2022/05/28 01:33:18;;;;;;;;;;;;;;;;;;350851;153;855913;-58
2022/05/28 01:34:19;;;;;;;;;;;;;;;;;;350221;153;858065;-58
2022/05/28 01:35:21;;;;;;;;;;;;;;;;;;349298;154;855736;-58
2022/05/28 01:36:23;;;;;;;;;;;;;;;;;;350742;152;855737;-58
2022/05/28 01:37:24;;;;;;;;;;;;;;;;;;350603;152;856195;-58
2022/05/28 01:38:26;;;;;;;;;;;;;;;;;;351004;153;855749;-58
2022/05/28 01:39:28;;;;;;;;;;;;;;;;;;345259;154;857515;-58
2022/05/28 01:40:29;;;;;;;;;;;;;;;;;;343168;155;857811;-58
2022/05/28 01:41:31;;;;;;;;;;;;;;;;;;347123;154;857522;-58
2022/05/28 01:42:33;;;;;;;;;;;;;;;;;;341689;156;855907;-59
2022/05/28 01:43:37;;;;;;;;;;;;;;;;;;342614;155;856340;-59
2022/05/28 01:44:38;;;;;;;;;;;;;;;;;;341764;155;856904;-60
2022/05/28 01:45:40;;;;;;;;;;;;;;;;;;348615;152;856855;-58
2022/05/28 01:46:41;;;;;;;;;;;;;;;;;;348722;152;855798;-58
2022/05/28 01:47:43;;;;;;;;;;;;;;;;;;349659;154;857578;-58
2022/05/28 01:48:44;;;;;;;;;;;;;;;;;;349945;154;857192;-57
2022/05/28 01:49:46;;;;;;;;;;;;;;;;;;350499;153;855858;-59
2022/05/28 01:50:47;;;;;;;;;;;;;;;;;;350454;153;855712;-58
2022/05/28 01:51:49;;;;;;;;;;;;;;;;;;350589;152;856025;-59
2022/05/28 01:52:50;;;;;;;;;;;;;;;;;;351142;153;855809;-58
2022/05/28 01:54:07;;;;;;;;;;;;;;;;;;350387;153;857593;-58
2022/05/28 01:55:08;;;;;;;;;;;;;;;;;;350060;154;855884;-59
2022/05/28 01:56:09;;;;;;;;;;;;;;;;;;350275;153;856401;-63
2022/05/28 01:57:11;;;;;;;;;;;;;;;;;;350228;153;855917;-59
2022/05/28 01:58:12;;;;;;;;;;;;;;;;;;349936;153;855916;-59
2022/05/28 01:59:13;;;;;;;;;;;;;;;;;;349458;153;856479;-59
2022/05/28 02:00:15;;;;;;;;;;;;;;;;;;349734;153;855957;-59
2022/05/28 02:01:17;;;;;;;;;;;;;;;;;;349698;152;856034;-58
2022/05/28 02:02:18;;;;;;;;;;;;;;;;;;350783;153;855922;-59
2022/05/28 02:03:19;;;;;;;;;;;;;;;;;;349942;153;855889;-58
2022/05/28 02:04:21;;;;;;;;;;;;;;;;;;350024;153;857436;-58
2022/05/28 02:05:22;;;;;;;;;;;;;;;;;;349586;153;856299;-59
2022/05/28 02:06:25;;;;;;;;;;;;;;;;;;350429;153;855826;-58
2022/05/28 02:07:26;;;;;;;;;;;;;;;;;;348359;152;856146;-59
2022/05/28 02:08:28;;;;;;;;;;;;;;;;;;348641;154;856712;-59
2022/05/28 02:09:29;;;;;;;;;;;;;;;;;;349218;153;855806;-58
2022/05/28 02:10:31;;;;;;;;;;;;;;;;;;348634;155;857428;-59
2022/05/28 02:11:33;;;;;;;;;;;;;;;;;;348814;152;855712;-58
2022/05/28 02:12:34;;;;;;;;;;;;;;;;;;349165;154;855806;-59
2022/05/28 02:13:35;;;;;;;;;;;;;;;;;;347853;154;856293;-58
2022/05/28 02:14:37;;;;;;;;;;;;;;;;;;348542;154;855899;-58
2022/05/28 02:15:38;;;;;;;;;;;;;;;;;;349124;155;855977;-59
2022/05/28 02:16:40;;;;;;;;;;;;;;;;;;348979;154;855865;-58
2022/05/28 02:17:42;;;;;;;;;;;;;;;;;;348456;152;855767;-59
2022/05/28 02:18:43;;;;;;;;;;;;;;;;;;349031;152;856373;-59
2022/05/28 02:19:45;;;;;;;;;;;;;;;;;;348118;154;855704;-59
2022/05/28 02:20:46;;;;;;;;;;;;;;;;;;349145;154;857242;-59
2022/05/28 02:21:47;;;;;;;;;;;;;;;;;;348764;154;855823;-59
2022/05/28 02:22:49;;;;;;;;;;;;;;;;;;348922;154;857591;-58
2022/05/28 02:23:50;;;;;;;;;;;;;;;;;;348753;155;856680;-59
2022/05/28 02:24:52;;;;;;;;;;;;;;;;;;348509;152;855787;-58
2022/05/28 02:25:53;;;;;;;;;;;;;;;;;;348086;152;856044;-58
2022/05/28 02:26:55;;;;;;;;;;;;;;;;;;348049;152;855876;-58
2022/05/28 02:27:56;;;;;;;;;;;;;;;;;;348844;152;856768;-59
2022/05/28 02:28:58;;;;;;;;;;;;;;;;;;349079;152;855862;-58
2022/05/28 02:29:59;;;;;;;;;;;;;;;;;;348418;152;855878;-59
2022/05/28 02:31:03;;;;;;;;;;;;;;;;;;348659;154;856215;-59
2022/05/28 02:32:05;;;;;;;;;;;;;;;;;;348038;154;855031;-58
2022/05/28 02:33:06;;;;;;;;;;;;;;;;;;348264;152;855606;-57
2022/05/28 02:34:08;;;;;;;;;;;;;;;;;;348632;153;857610;-59
2022/05/28 02:35:09;;;;;;;;;;;;;;;;;;348474;152;855854;-59
2022/05/28 02:36:12;;;;;;;;;;;;;;;;;;348126;152;855921;-56
2022/05/28 02:37:14;;;;;;;;;;;;;;;;;;348230;152;855412;-58
2022/05/28 02:38:16;;;;;;;;;;;;;;;;;;348975;154;856150;-58
2022/05/28 02:39:18;;;;;;;;;;;;;;;;;;348293;152;856857;-60
2022/05/28 02:40:19;;;;;;;;;;;;;;;;;;348997;152;856116;-56
2022/05/28 02:41:22;;;;;;;;;;;;;;;;;;348574;152;855879;-58
2022/05/28 02:42:23;;;;;;;;;;;;;;;;;;347723;154;856217;-58
2022/05/28 02:43:25;;;;;;;;;;;;;;;;;;347992;152;855729;-58
2022/05/28 02:44:26;;;;;;;;;;;;;;;;;;348606;152;857157;-59
2022/05/28 02:45:28;;;;;;;;;;;;;;;;;;350554;152;855720;-58
2022/05/28 02:46:29;;;;;;;;;;;;;;;;;;352107;152;855874;-59
2022/05/28 02:47:31;;;;;;;;;;;;;;;;;;347581;152;856215;-57
2022/05/28 02:48:32;;;;;;;;;;;;;;;;;;347392;154;855801;-59
2022/05/28 02:49:33;;;;;;;;;;;;;;;;;;348143;153;855861;-59
2022/05/28 02:50:36;;;;;;;;;;;;;;;;;;351371;152;855881;-58
2022/05/28 02:51:37;;;;;;;;;;;;;;;;;;348484;152;857691;-58
2022/05/28 02:52:40;;;;;;;;;;;;;;;;;;347162;152;855053;-59
2022/05/28 02:53:41;;;;;;;;;;;;;;;;;;350375;152;854913;-59
2022/05/28 02:54:42;;;;;;;;;;;;;;;;;;347923;152;854974;-60
2022/05/28 02:55:44;;;;;;;;;;;;;;;;;;346326;154;855010;-58
2022/05/28 02:56:46;;;;;;;;;;;;;;;;;;347399;152;854901;-59
2022/05/28 02:57:47;;;;;;;;;;;;;;;;;;346399;152;854876;-60
2022/05/28 02:58:48;;;;;;;;;;;;;;;;;;348731;152;855381;-58
2022/05/28 02:59:50;;;;;;;;;;;;;;;;;;344231;154;854921;-58
2022/05/28 03:00:51;;;;;;;;;;;;;;;;;;342513;154;854981;-58
2022/05/28 03:01:52;;;;;;;;;;;;;;;;;;350565;152;855445;-59
2022/05/28 03:02:54;;;;;;;;;;;;;;;;;;349755;152;854889;-58
2022/05/28 03:03:56;;;;;;;;;;;;;;;;;;349111;152;855049;-59
2022/05/28 03:04:57;;;;;;;;;;;;;;;;;;348447;152;855044;-59
2022/05/28 03:05:59;;;;;;;;;;;;;;;;;;346618;154;855823;-58
2022/05/28 03:07:00;;;;;;;;;;;;;;;;;;342596;155;857413;-58
2022/05/28 03:08:02;;;;;;;;;;;;;;;;;;343040;155;855773;-58
2022/05/28 03:09:03;;;;;;;;;;;;;;;;;;346495;152;854870;-58
2022/05/28 03:10:04;;;;;;;;;;;;;;;;;;348875;154;854869;-57
2022/05/28 03:11:06;;;;;;;;;;;;;;;;;;347775;154;855561;-56
2022/05/28 03:12:07;;;;;;;;;;;;;;;;;;348923;152;855475;-59
2022/05/28 03:13:09;;;;;;;;;;;;;;;;;;349680;152;854948;-59
2022/05/28 03:14:11;;;;;;;;;;;;;;;;;;353370;152;855081;-59
2022/05/28 03:15:13;;;;;;;;;;;;;;;;;;347608;152;855124;-59
2022/05/28 03:16:14;;;;;;;;;;;;;;;;;;348633;152;855045;-58
2022/05/28 03:17:16;;;;;;;;;;;;;;;;;;348703;153;855701;-59
2022/05/28 03:18:17;;;;;;;;;;;;;;;;;;349583;152;855083;-60
2022/05/28 03:19:18;;;;;;;;;;;;;;;;;;345437;152;855513;-59
2022/05/28 03:20:20;;;;;;;;;;;;;;;;;;350265;152;855032;-59
2022/05/28 03:21:21;;;;;;;;;;;;;;;;;;347858;154;854974;-59
2022/05/28 03:22:23;;;;;;;;;;;;;;;;;;347453;154;856144;-59
2022/05/28 03:23:24;;;;;;;;;;;;;;;;;;349082;152;856146;-59
2022/05/28 03:24:25;;;;;;;;;;;;;;;;;;349811;152;855978;-60
2022/05/28 03:25:27;;;;;;;;;;;;;;;;;;344316;155;857044;-59
2022/05/28 03:26:28;;;;;;;;;;;;;;;;;;341892;157;855756;-59
2022/05/28 03:27:29;;;;;;;;;;;;;;;;;;342474;154;856942;-59
2022/05/28 03:28:30;;;;;;;;;;;;;;;;;;344111;157;855988;-60
2022/05/28 03:29:32;;;;;;;;;;;;;;;;;;342056;157;856652;-59
2022/05/28 03:30:33;;;;;;;;;;;;;;;;;;344905;154;855778;-59
2022/05/28 03:31:35;;;;;;;;;;;;;;;;;;342177;157;856132;-56
2022/05/28 03:32:36;;;;;;;;;;;;;;;;;;344562;157;856648;-59
2022/05/28 03:33:38;;;;;;;;;;;;;;;;;;344279;154;855827;-58
2022/05/28 03:34:39;;;;;;;;;;;;;;;;;;342560;154;857285;-59
2022/05/28 03:35:41;;;;;;;;;;;;;;;;;;343372;154;855772;-59
2022/05/28 03:36:42;;;;;;;;;;;;;;;;;;343291;156;855852;-59
2022/05/28 03:37:43;;;;;;;;;;;;;;;;;;343808;157;855829;-61
2022/05/28 03:38:45;;;;;;;;;;;;;;;;;;342207;157;856091;-60
2022/05/28 03:39:46;;;;;;;;;;;;;;;;;;343175;157;855837;-60
2022/05/28 03:40:48;;;;;;;;;;;;;;;;;;350652;152;855842;-58
2022/05/28 03:41:49;;;;;;;;;;;;;;;;;;351324;153;857326;-61
2022/05/28 03:42:51;;;;;;;;;;;;;;;;;;349679;153;855805;-63
2022/05/28 03:43:52;;;;;;;;;;;;;;;;;;350874;153;856832;-61
2022/05/28 03:44:53;;;;;;;;;;;;;;;;;;354317;151;855862;-63
2022/05/28 03:45:55;;;;;;;;;;;;;;;;;;353771;150;857595;-61
2022/05/28 03:46:56;;;;;;;;;;;;;;;;;;350362;153;856324;-61
2022/05/28 03:47:57;;;;;;;;;;;;;;;;;;350228;150;855804;-62
2022/05/28 03:48:59;;;;;;;;;;;;;;;;;;351963;153;856035;-58
2022/05/28 03:50:00;;;;;;;;;;;;;;;;;;351476;153;855858;-61
2022/05/28 03:51:01;;;;;;;;;;;;;;;;;;349733;153;855820;-59
2022/05/28 03:52:03;;;;;;;;;;;;;;;;;;352426;152;855867;-59
2022/05/28 03:53:04;;;;;;;;;;;;;;;;;;354192;151;855849;-59
2022/05/28 03:54:05;;;;;;;;;;;;;;;;;;354640;151;856351;-67
2022/05/28 03:55:07;;;;;;;;;;;;;;;;;;354046;151;855834;-63
2022/05/28 03:56:08;;;;;;;;;;;;;;;;;;354750;151;857210;-66
2022/05/28 03:57:10;;;;;;;;;;;;;;;;;;354004;151;855923;-65
2022/05/28 03:58:11;;;;;;;;;;;;;;;;;;353312;151;857771;-65
2022/05/28 03:59:13;;;;;;;;;;;;;;;;;;352842;151;855977;-65
2022/05/28 04:00:14;;;;;;;;;;;;;;;;;;353643;151;856265;-65
2022/05/28 04:01:16;;;;;;;;;;;;;;;;;;352944;151;855915;-64
2022/05/28 04:02:17;;;;;;;;;;;;;;;;;;355025;151;855924;-65
2022/05/28 04:03:18;;;;;;;;;;;;;;;;;;355697;151;856792;-68
2022/05/28 04:04:20;;;;;;;;;;;;;;;;;;353582;151;855936;-65
2022/05/28 04:05:22;;;;;;;;;;;;;;;;;;353328;151;857496;-66
2022/05/28 04:06:24;;;;;;;;;;;;;;;;;;352974;151;855607;-65
2022/05/28 04:07:25;;;;;;;;;;;;;;;;;;353710;151;857389;-65
2022/05/28 04:08:26;;;;;;;;;;;;;;;;;;353230;151;856151;-65
2022/05/28 04:09:28;;;;;;;;;;;;;;;;;;355331;151;855830;-60
2022/05/28 04:10:29;;;;;;;;;;;;;;;;;;353914;151;855800;-62
2022/05/28 04:11:30;;;;;;;;;;;;;;;;;;353681;151;855864;-65
2022/05/28 04:12:32;;;;;;;;;;;;;;;;;;353144;151;856081;-64
2022/05/28 04:13:33;;;;;;;;;;;;;;;;;;354953;151;856010;-64
2022/05/28 04:14:34;;;;;;;;;;;;;;;;;;353784;151;855760;-58
2022/05/28 04:15:36;;;;;;;;;;;;;;;;;;353977;151;855857;-60
2022/05/28 04:16:37;;;;;;;;;;;;;;;;;;355564;151;855952;-59
2022/05/28 04:17:39;;;;;;;;;;;;;;;;;;354460;151;857543;-60
2022/05/28 04:18:40;;;;;;;;;;;;;;;;;;353504;151;855868;-64
2022/05/28 04:19:41;;;;;;;;;;;;;;;;;;353905;151;856705;-61
2022/05/28 04:20:43;;;;;;;;;;;;;;;;;;353685;151;855853;-58
2022/05/28 04:21:44;;;;;;;;;;;;;;;;;;355589;151;856254;-59
2022/05/28 04:22:46;;;;;;;;;;;;;;;;;;354326;151;855747;-60
2022/05/28 04:23:47;;;;;;;;;;;;;;;;;;354351;151;855980;-60
2022/05/28 04:24:48;;;;;;;;;;;;;;;;;;353855;151;855939;-60
2022/05/28 04:25:50;;;;;;;;;;;;;;;;;;354534;151;857630;-59
2022/05/28 04:26:51;;;;;;;;;;;;;;;;;;353891;151;855833;-58
2022/05/28 04:27:52;;;;;;;;;;;;;;;;;;353716;151;855827;-59
2022/05/28 04:28:54;;;;;;;;;;;;;;;;;;353444;151;856146;-60
2022/05/28 04:29:55;;;;;;;;;;;;;;;;;;354165;151;855728;-60
2022/05/28 04:30:57;;;;;;;;;;;;;;;;;;353627;151;856007;-60
2022/05/28 04:31:58;;;;;;;;;;;;;;;;;;353688;151;857660;-61
2022/05/28 04:32:59;;;;;;;;;;;;;;;;;;353315;151;857369;-61
2022/05/28 04:34:01;;;;;;;;;;;;;;;;;;353266;151;855773;-57
2022/05/28 04:35:02;;;;;;;;;;;;;;;;;;355813;151;856752;-58
2022/05/28 04:36:03;;;;;;;;;;;;;;;;;;353663;151;855829;-59
2022/05/28 04:37:05;;;;;;;;;;;;;;;;;;355553;151;855669;-61
2022/05/28 04:38:06;;;;;;;;;;;;;;;;;;353854;151;856611;-60
2022/05/28 04:39:07;;;;;;;;;;;;;;;;;;354462;151;855715;-60
2022/05/28 04:40:09;;;;;;;;;;;;;;;;;;354516;151;856795;-61
2022/05/28 04:41:10;;;;;;;;;;;;;;;;;;353140;151;856034;-61
2022/05/28 04:42:11;;;;;;;;;;;;;;;;;;352784;151;857642;-60
2022/05/28 04:43:13;;;;;;;;;;;;;;;;;;357182;151;856155;-58
2022/05/28 04:44:14;;;;;;;;;;;;;;;;;;354239;151;855796;-58
2022/05/28 04:45:16;;;;;;;;;;;;;;;;;;354564;151;856705;-60
2022/05/28 04:46:18;;;;;;;;;;;;;;;;;;354891;151;855891;-60
2022/05/28 04:47:19;;;;;;;;;;;;;;;;;;352765;151;856690;-60
2022/05/28 04:48:21;;;;;;;;;;;;;;;;;;356132;151;856193;-59
2022/05/28 04:49:22;;;;;;;;;;;;;;;;;;353806;151;857890;-59
2022/05/28 04:50:23;;;;;;;;;;;;;;;;;;353761;151;857753;-59
2022/05/28 04:51:25;;;;;;;;;;;;;;;;;;354413;151;855755;-60
2022/05/28 04:52:26;;;;;;;;;;;;;;;;;;354073;151;857700;-60
2022/05/28 04:53:28;;;;;;;;;;;;;;;;;;353368;151;856249;-59
2022/05/28 04:54:29;;;;;;;;;;;;;;;;;;353657;151;857627;-59
2022/05/28 04:55:30;;;;;;;;;;;;;;;;;;354445;151;855957;-60
2022/05/28 04:56:32;;;;;;;;;;;;;;;;;;354760;150;855900;-60
2022/05/28 04:57:33;;;;;;;;;;;;;;;;;;352340;151;855956;-60
2022/05/28 04:58:34;;;;;;;;;;;;;;;;;;353362;151;855793;-58
2022/05/28 04:59:36;;;;;;;;;;;;;;;;;;354242;151;857516;-60
2022/05/28 05:00:38;;;;;;;;;;;;;;;;;;353673;149;856032;-59
2022/05/28 05:01:40;;;;;;;;;;;;;;;;;;354139;152;855891;-58
2022/05/28 05:02:41;;;;;;;;;;;;;;;;;;354501;152;855178;-59
2022/05/28 05:03:42;;;;;;;;;;;;;;;;;;354199;151;855267;-59
2022/05/28 05:04:44;;;;;;;;;;;;;;;;;;353232;152;855214;-59
2022/05/28 05:05:45;;;;;;;;;;;;;;;;;;353785;151;857912;-59
2022/05/28 05:06:47;;;;;;;;;;;;;;;;;;357036;149;856271;-60
2022/05/28 05:07:49;;;;;;;;;;;;;;;;;;356905;149;856350;-61
2022/05/28 05:08:50;;;;;;;;;;;;;;;;;;357279;149;857575;-60
2022/05/28 05:09:52;;;;;;;;;;;;;;;;;;356440;149;857719;-58
2022/05/28 05:10:53;;;;;;;;;;;;;;;;;;357414;149;856758;-59
2022/05/28 05:11:55;;;;;;;;;;;;;;;;;;357486;149;855719;-59
2022/05/28 05:12:56;;;;;;;;;;;;;;;;;;357206;149;855919;-59
2022/05/28 05:13:58;;;;;;;;;;;;;;;;;;357369;149;857687;-60
2022/05/28 05:14:59;;;;;;;;;;;;;;;;;;357484;149;855755;-61
2022/05/28 05:16:00;;;;;;;;;;;;;;;;;;356728;149;857556;-61
2022/05/28 05:17:02;;;;;;;;;;;;;;;;;;357918;149;856211;-59
2022/05/28 05:18:03;;;;;;;;;;;;;;;;;;358215;149;855862;-61
2022/05/28 05:19:04;;;;;;;;;;;;;;;;;;356970;149;855887;-61
2022/05/28 05:20:06;;;;;;;;;;;;;;;;;;356937;149;855858;-59
2022/05/28 05:21:07;;;;;;;;;;;;;;;;;;358096;149;855792;-59
2022/05/28 05:22:09;;;;;;;;;;;;;;;;;;357126;149;857028;-59
2022/05/28 05:23:10;;;;;;;;;;;;;;;;;;357032;149;856038;-59
2022/05/28 05:24:12;;;;;;;;;;;;;;;;;;357064;149;857396;-58
2022/05/28 05:25:13;;;;;;;;;;;;;;;;;;356945;148;855139;-57
2022/05/28 05:26:15;;;;;;;;;;;;;;;;;;352953;150;856196;-56
2022/05/28 05:27:16;;;;;;;;;;;;;;;;;;352482;150;855078;-56
2022/05/28 05:28:17;;;;;;;;;;;;;;;;;;350341;153;857645;-57
2022/05/28 05:29:18;;;;;;;;;;;;;;;;;;350076;153;856309;-59
2022/05/28 05:30:20;;;;;;;;;;;;;;;;;;350775;153;855929;-58
2022/05/28 05:31:21;;;;;;;;;;;;;;;;;;352829;150;856882;-60
2022/05/28 05:32:22;;;;;;;;;;;;;;;;;;358893;149;854869;-60
2022/05/28 05:33:24;;;;;;;;;;;;;;;;;;359779;149;856007;-59
2022/05/28 05:34:25;;;;;;;;;;;;;;;;;;356159;149;855723;-59
2022/05/28 05:35:27;;;;;;;;;;;;;;;;;;356957;149;857520;-58
2022/05/28 05:36:28;;;;;;;;;;;;;;;;;;357010;149;856022;-59
2022/05/28 05:37:30;;;;;;;;;;;;;;;;;;357552;149;855838;-60
2022/05/28 05:38:32;;;;;;;;;;;;;;;;;;356790;149;855843;-59
2022/05/28 05:39:33;;;;;;;;;;;;;;;;;;356991;149;855827;-59
2022/05/28 05:40:37;;;;;;;;;;;;;;;;;;357743;149;856905;-59
2022/05/28 05:41:39;;;;;;;;;;;;;;;;;;357586;149;855913;-60
2022/05/28 05:42:40;;;;;;;;;;;;;;;;;;359091;150;855148;-61
2022/05/28 05:43:41;;;;;;;;;;;;;;;;;;357090;150;856387;-59
2022/05/28 05:44:43;;;;;;;;;;;;;;;;;;357398;150;855918;-58
2022/05/28 05:45:44;;;;;;;;;;;;;;;;;;356826;150;855013;-59
2022/05/28 05:46:45;;;;;;;;;;;;;;;;;;357381;148;855738;-58
2022/05/28 05:47:47;;;;;;;;;;;;;;;;;;359140;150;856234;-59
2022/05/28 05:48:48;;;;;;;;;;;;;;;;;;357894;150;856431;-59
2022/05/28 05:49:50;;;;;;;;;;;;;;;;;;358262;150;855855;-60
2022/05/28 05:50:52;;;;;;;;;;;;;;;;;;357048;148;855995;-59
2022/05/28 05:51:55;;;;;;;;;;;;;;;;;;356006;150;856051;-59
2022/05/28 05:52:56;;;;;;;;;;;;;;;;;;357627;150;855840;-60
2022/05/28 05:53:58;;;;;;;;;;;;;;;;;;358837;150;855929;-59
2022/05/28 05:54:59;;;;;;;;;;;;;;;;;;356657;150;856973;-59
2022/05/28 05:56:00;;;;;;;;;;;;;;;;;;354922;152;855910;-60
2022/05/28 05:57:02;;;;;;;;;;;;;;;;;;353525;152;856737;-59
2022/05/28 05:58:04;;;;;;;;;;;;;;;;;;356164;150;855040;-60
2022/05/28 05:59:05;;;;;;;;;;;;;;;;;;356962;150;854872;-59
2022/05/28 06:00:07;;;;;;;;;;;;;;;;;;356665;150;854911;-59
2022/05/28 06:01:09;;;;;;;;;;;;;;;;;;358279;150;854920;-59
2022/05/28 06:02:10;;;;;;;;;;;;;;;;;;357317;150;855118;-60
2022/05/28 06:03:12;;;;;;;;;;;;;;;;;;356410;150;855169;-60
2022/05/28 06:04:13;;;;;;;;;;;;;;;;;;357278;150;855726;-61
2022/05/28 06:05:14;;;;;;;;;;;;;;;;;;356234;150;855102;-60
2022/05/28 06:06:17;;;;;;;;;;;;;;;;;;356633;150;855115;-60
2022/05/28 06:07:19;;;;;;;;;;;;;;;;;;357644;151;855724;-61
2022/05/28 06:08:20;;;;;;;;;;;;;;;;;;357069;150;855666;-59
2022/05/28 06:09:22;;;;;;;;;;;;;;;;;;357433;151;854848;-61
2022/05/28 06:10:24;;;;;;;;;;;;;;;;;;357898;150;854893;-60
2022/05/28 06:11:25;;;;;;;;;;;;;;;;;;357315;150;854860;-60
2022/05/28 06:12:26;;;;;;;;;;;;;;;;;;357701;150;854935;-60
2022/05/28 06:13:28;;;;;;;;;;;;;;;;;;356166;150;855805;-59
2022/05/28 06:14:30;;;;;;;;;;;;;;;;;;355721;150;855821;-60
2022/05/28 06:15:31;;;;;;;;;;;;;;;;;;356981;150;856857;-60
2022/05/28 06:16:33;;;;;;;;;;;;;;;;;;356389;150;855842;-58
2022/05/28 06:17:35;;;;;;;;;;;;;;;;;;357230;150;856756;-60
2022/05/28 06:18:36;;;;;;;;;;;;;;;;;;356269;150;855906;-60
2022/05/28 06:19:37;;;;;;;;;;;;;;;;;;358264;150;855854;-57
2022/05/28 06:20:39;;;;;;;;;;;;;;;;;;357777;150;856582;-60
2022/05/28 06:21:40;;;;;;;;;;;;;;;;;;357120;150;855841;-59
2022/05/28 06:22:42;;;;;;;;;;;;;;;;;;359887;150;855815;-59
2022/05/28 06:23:43;;;;;;;;;;;;;;;;;;358341;150;855794;-59
2022/05/28 06:24:45;;;;;;;;;;;;;;;;;;360051;150;855857;-58
2022/05/28 06:25:46;;;;;;;;;;;;;;;;;;357569;150;856176;-57
2022/05/28 06:26:47;;;;;;;;;;;;;;;;;;357351;150;857563;-59
2022/05/28 06:27:49;;;;;;;;;;;;;;;;;;356006;150;857220;-59
2022/05/28 06:28:51;;;;;;;;;;;;;;;;;;355931;148;855118;-60
2022/05/28 06:29:52;;;;;;;;;;;;;;;;;;359014;148;857394;-60
2022/05/28 06:30:54;;;;;;;;;;;;;;;;;;357067;150;855840;-60
2022/05/28 06:31:55;;;;;;;;;;;;;;;;;;358059;150;856961;-59
2022/05/28 06:32:57;;;;;;;;;;;;;;;;;;356698;150;855856;-59
2022/05/28 06:33:58;;;;;;;;;;;;;;;;;;356058;150;857649;-59
2022/05/28 06:35:00;;;;;;;;;;;;;;;;;;357082;150;855827;-59
2022/05/28 06:36:02;;;;;;;;;;;;;;;;;;356532;150;855755;-59
2022/05/28 06:37:03;;;;;;;;;;;;;;;;;;358296;150;855858;-59
2022/05/28 06:38:05;;;;;;;;;;;;;;;;;;356645;150;857514;-59
2022/05/28 06:39:06;;;;;;;;;;;;;;;;;;358386;150;855890;-57
2022/05/28 06:40:08;;;;;;;;;;;;;;;;;;356588;150;855821;-58
2022/05/28 06:41:09;;;;;;;;;;;;;;;;;;356770;150;855918;-60
2022/05/28 06:42:11;;;;;;;;;;;;;;;;;;358045;150;856123;-59
2022/05/28 06:43:12;;;;;;;;;;;;;;;;;;356774;150;855873;-59
2022/05/28 06:44:14;;;;;;;;;;;;;;;;;;355952;150;857007;-58
2022/05/28 06:45:15;;;;;;;;;;;;;;;;;;357714;150;856048;-59
2022/05/28 06:46:17;;;;;;;;;;;;;;;;;;359395;148;855934;-58
2022/05/28 06:47:18;;;;;;;;;;;;;;;;;;358095;150;855914;-59
2022/05/28 06:48:19;;;;;;;;;;;;;;;;;;357190;150;857712;-59
2022/05/28 06:49:21;;;;;;;;;;;;;;;;;;358627;150;855760;-57
2022/05/28 06:51:43;;;;;;;;;;;;;;;;;;351140;152;855857;-58
2022/05/28 06:52:44;;;;;;;;;;;;;;;;;;350881;149;855949;-59
2022/05/28 06:53:47;;;;;;;;;;;;;;;;;;353138;152;856917;-59
2022/05/28 06:54:48;;;;;;;;;;;;;;;;;;351902;151;855873;-59